sensor_id;sensor_type;location;lat;lon;timestamp;temperature;humidity
40932;DHT22;36257;46.052;12.540;2023-05-08T00:01:08;18.00;96.60
40932;DHT22;36257;46.052;12.540;2023-05-08T00:03:34;17.90;96.60
40932;DHT22;36257;46.052;12.540;2023-05-08T00:06:03;18.00;96.20
40932;DHT22;36257;46.052;12.540;2023-05-08T00:08:30;18.00;96.60
40932;DHT22;36257;46.052;12.540;2023-05-08T00:10:55;18.00;96.80
40932;DHT22;36257;46.052;12.540;2023-05-08T00:13:21;17.90;96.80
40932;DHT22;36257;46.052;12.540;2023-05-08T00:15:47;17.90;97.30
40932;DHT22;36257;46.052;12.540;2023-05-08T00:18:12;17.90;96.80
40932;DHT22;36257;46.052;12.540;2023-05-08T00:20:38;17.90;96.80
40932;DHT22;36257;46.052;12.540;2023-05-08T00:23:04;18.00;96.50
40932;DHT22;36257;46.052;12.540;2023-05-08T00:25:29;17.90;97.30
40932;DHT22;36257;46.052;12.540;2023-05-08T00:27:56;17.90;97.50
40932;DHT22;36257;46.052;12.540;2023-05-08T00:30:22;17.90;97.20
40932;DHT22;36257;46.052;12.540;2023-05-08T00:32:48;17.90;96.50
40932;DHT22;36257;46.052;12.540;2023-05-08T00:35:13;17.90;96.40
40932;DHT22;36257;46.052;12.540;2023-05-08T00:37:39;17.80;96.60
40932;DHT22;36257;46.052;12.540;2023-05-08T00:40:07;17.90;96.30
40932;DHT22;36257;46.052;12.540;2023-05-08T00:42:33;17.80;96.00
40932;DHT22;36257;46.052;12.540;2023-05-08T00:44:58;17.90;96.30
40932;DHT22;36257;46.052;12.540;2023-05-08T00:47:24;17.80;96.40
40932;DHT22;36257;46.052;12.540;2023-05-08T00:49:51;17.80;96.40
40932;DHT22;36257;46.052;12.540;2023-05-08T00:52:17;17.80;96.00
40932;DHT22;36257;46.052;12.540;2023-05-08T00:54:43;17.90;95.90
40932;DHT22;36257;46.052;12.540;2023-05-08T00:57:09;17.80;96.10
40932;DHT22;36257;46.052;12.540;2023-05-08T00:59:36;17.80;96.70
40932;DHT22;36257;46.052;12.540;2023-05-08T01:02:06;17.80;96.30
40932;DHT22;36257;46.052;12.540;2023-05-08T01:04:32;17.80;96.40
40932;DHT22;36257;46.052;12.540;2023-05-08T01:07:00;17.90;96.30
40932;DHT22;36257;46.052;12.540;2023-05-08T01:09:26;17.80;96.30
40932;DHT22;36257;46.052;12.540;2023-05-08T01:12:20;17.80;96.10
40932;DHT22;36257;46.052;12.540;2023-05-08T01:34:32;17.80;96.70
40932;DHT22;36257;46.052;12.540;2023-05-08T01:37:03;17.70;96.80
40932;DHT22;36257;46.052;12.540;2023-05-08T01:39:33;17.60;97.10
40932;DHT22;36257;46.052;12.540;2023-05-08T01:42:23;17.60;97.20
40932;DHT22;36257;46.052;12.540;2023-05-08T01:45:06;17.50;97.30
40932;DHT22;36257;46.052;12.540;2023-05-08T01:47:37;17.60;97.20
40932;DHT22;36257;46.052;12.540;2023-05-08T01:50:24;17.70;96.80
40932;DHT22;36257;46.052;12.540;2023-05-08T01:53:03;17.70;96.50
40932;DHT22;36257;46.052;12.540;2023-05-08T01:55:35;17.70;96.40
40932;DHT22;36257;46.052;12.540;2023-05-08T01:58:07;17.80;96.20
40932;DHT22;36257;46.052;12.540;2023-05-08T02:00:34;17.80;96.30
40932;DHT22;36257;46.052;12.540;2023-05-08T02:03:05;17.80;96.50
40932;DHT22;36257;46.052;12.540;2023-05-08T02:05:35;17.70;97.10
40932;DHT22;36257;46.052;12.540;2023-05-08T02:08:02;17.70;97.40
40932;DHT22;36257;46.052;12.540;2023-05-08T02:10:28;17.70;95.50
40932;DHT22;36257;46.052;12.540;2023-05-08T02:12:55;17.70;95.80
40932;DHT22;36257;46.052;12.540;2023-05-08T02:15:21;17.80;95.10
40932;DHT22;36257;46.052;12.540;2023-05-08T02:17:49;17.80;95.10
40932;DHT22;36257;46.052;12.540;2023-05-08T02:20:16;17.80;95.50
40932;DHT22;36257;46.052;12.540;2023-05-08T02:22:43;17.80;95.30
40932;DHT22;36257;46.052;12.540;2023-05-08T02:25:11;17.70;95.20
40932;DHT22;36257;46.052;12.540;2023-05-08T02:27:40;17.70;95.20
40932;DHT22;36257;46.052;12.540;2023-05-08T02:30:12;17.80;94.20
40932;DHT22;36257;46.052;12.540;2023-05-08T02:32:40;17.90;94.10
40932;DHT22;36257;46.052;12.540;2023-05-08T02:35:07;17.90;94.10
40932;DHT22;36257;46.052;12.540;2023-05-08T02:37:34;17.90;93.30
40932;DHT22;36257;46.052;12.540;2023-05-08T02:40:00;17.90;93.30
40932;DHT22;36257;46.052;12.540;2023-05-08T02:42:28;18.00;93.00
40932;DHT22;36257;46.052;12.540;2023-05-08T02:44:54;18.00;93.00
40932;DHT22;36257;46.052;12.540;2023-05-08T02:47:25;18.00;93.20
40932;DHT22;36257;46.052;12.540;2023-05-08T02:53:02;17.80;93.90
40932;DHT22;36257;46.052;12.540;2023-05-08T02:55:56;17.90;95.50
40932;DHT22;36257;46.052;12.540;2023-05-08T02:58:28;17.90;95.80
40932;DHT22;36257;46.052;12.540;2023-05-08T03:01:11;17.90;97.00
40932;DHT22;36257;46.052;12.540;2023-05-08T03:03:41;17.80;96.90
40932;DHT22;36257;46.052;12.540;2023-05-08T03:06:11;17.80;97.00
40932;DHT22;36257;46.052;12.540;2023-05-08T03:08:39;17.70;97.60
40932;DHT22;36257;46.052;12.540;2023-05-08T03:11:18;17.70;97.80
40932;DHT22;36257;46.052;12.540;2023-05-08T03:13:47;17.60;98.60
40932;DHT22;36257;46.052;12.540;2023-05-08T03:16:19;17.40;99.60
40932;DHT22;36257;46.052;12.540;2023-05-08T03:19:18;17.40;99.90
40932;DHT22;36257;46.052;12.540;2023-05-08T03:21:46;17.30;99.90
40932;DHT22;36257;46.052;12.540;2023-05-08T03:24:14;17.40;99.90
40932;DHT22;36257;46.052;12.540;2023-05-08T03:26:42;17.40;99.90
40932;DHT22;36257;46.052;12.540;2023-05-08T03:29:09;17.40;99.90
40932;DHT22;36257;46.052;12.540;2023-05-08T03:31:35;17.40;99.90
40932;DHT22;36257;46.052;12.540;2023-05-08T03:34:02;17.40;99.90
40932;DHT22;36257;46.052;12.540;2023-05-08T03:36:29;17.30;99.90
40932;DHT22;36257;46.052;12.540;2023-05-08T03:38:55;17.20;99.90
40932;DHT22;36257;46.052;12.540;2023-05-08T03:41:21;17.20;99.90
40932;DHT22;36257;46.052;12.540;2023-05-08T03:43:47;17.10;99.90
40932;DHT22;36257;46.052;12.540;2023-05-08T03:46:13;17.10;99.90
40932;DHT22;36257;46.052;12.540;2023-05-08T03:48:41;17.20;99.90
40932;DHT22;36257;46.052;12.540;2023-05-08T03:51:07;17.20;99.90
40932;DHT22;36257;46.052;12.540;2023-05-08T03:53:34;17.20;99.90
40932;DHT22;36257;46.052;12.540;2023-05-08T03:55:59;17.20;99.90
40932;DHT22;36257;46.052;12.540;2023-05-08T04:04:00;17.20;99.90
40932;DHT22;36257;46.052;12.540;2023-05-08T04:06:41;17.10;99.90
40932;DHT22;36257;46.052;12.540;2023-05-08T04:09:42;17.00;99.90
40932;DHT22;36257;46.052;12.540;2023-05-08T04:12:30;17.00;99.90
40932;DHT22;36257;46.052;12.540;2023-05-08T04:15:14;16.90;99.90
40932;DHT22;36257;46.052;12.540;2023-05-08T04:17:44;16.90;99.90
40932;DHT22;36257;46.052;12.540;2023-05-08T04:20:16;16.80;99.90
40932;DHT22;36257;46.052;12.540;2023-05-08T04:22:44;16.70;99.90
40932;DHT22;36257;46.052;12.540;2023-05-08T04:25:11;16.70;99.90
40932;DHT22;36257;46.052;12.540;2023-05-08T04:27:40;16.70;99.90
40932;DHT22;36257;46.052;12.540;2023-05-08T04:30:07;16.70;99.90
40932;DHT22;36257;46.052;12.540;2023-05-08T04:32:34;16.60;99.90
40932;DHT22;36257;46.052;12.540;2023-05-08T04:35:01;16.60;99.90
40932;DHT22;36257;46.052;12.540;2023-05-08T04:37:28;16.60;99.90
40932;DHT22;36257;46.052;12.540;2023-05-08T04:39:55;16.60;99.90
40932;DHT22;36257;46.052;12.540;2023-05-08T04:42:21;16.60;99.90
40932;DHT22;36257;46.052;12.540;2023-05-08T04:44:47;16.60;99.90
40932;DHT22;36257;46.052;12.540;2023-05-08T04:47:13;16.60;99.90
40932;DHT22;36257;46.052;12.540;2023-05-08T04:49:39;16.60;99.90
40932;DHT22;36257;46.052;12.540;2023-05-08T04:52:05;16.50;99.90
40932;DHT22;36257;46.052;12.540;2023-05-08T04:54:31;16.50;99.90
40932;DHT22;36257;46.052;12.540;2023-05-08T04:56:57;16.40;99.90
40932;DHT22;36257;46.052;12.540;2023-05-08T04:59:22;16.40;99.90
40932;DHT22;36257;46.052;12.540;2023-05-08T05:01:49;16.40;99.90
40932;DHT22;36257;46.052;12.540;2023-05-08T05:04:15;16.40;99.90
40932;DHT22;36257;46.052;12.540;2023-05-08T05:06:41;16.30;99.90
40932;DHT22;36257;46.052;12.540;2023-05-08T05:09:06;16.30;99.90
40932;DHT22;36257;46.052;12.540;2023-05-08T05:11:32;16.30;99.90
40932;DHT22;36257;46.052;12.540;2023-05-08T05:13:58;16.30;99.90
40932;DHT22;36257;46.052;12.540;2023-05-08T05:16:23;16.30;99.90
40932;DHT22;36257;46.052;12.540;2023-05-08T05:18:49;16.30;99.90
40932;DHT22;36257;46.052;12.540;2023-05-08T05:21:15;16.30;99.90
40932;DHT22;36257;46.052;12.540;2023-05-08T05:23:41;16.30;99.90
40932;DHT22;36257;46.052;12.540;2023-05-08T05:26:06;16.40;99.90
40932;DHT22;36257;46.052;12.540;2023-05-08T05:28:32;16.30;99.90
40932;DHT22;36257;46.052;12.540;2023-05-08T05:30:58;16.40;99.90
40932;DHT22;36257;46.052;12.540;2023-05-08T05:33:23;16.30;99.90
40932;DHT22;36257;46.052;12.540;2023-05-08T05:35:49;16.40;99.90
40932;DHT22;36257;46.052;12.540;2023-05-08T05:38:15;16.50;99.90
40932;DHT22;36257;46.052;12.540;2023-05-08T05:40:40;16.50;99.90
40932;DHT22;36257;46.052;12.540;2023-05-08T05:43:06;16.50;99.90
40932;DHT22;36257;46.052;12.540;2023-05-08T05:45:31;16.50;99.90
40932;DHT22;36257;46.052;12.540;2023-05-08T05:47:57;16.60;99.90
40932;DHT22;36257;46.052;12.540;2023-05-08T05:50:23;16.60;99.90
40932;DHT22;36257;46.052;12.540;2023-05-08T05:52:48;16.60;99.90
40932;DHT22;36257;46.052;12.540;2023-05-08T05:55:14;16.60;99.90
40932;DHT22;36257;46.052;12.540;2023-05-08T05:57:40;16.50;99.90
40932;DHT22;36257;46.052;12.540;2023-05-08T06:00:06;16.50;99.90
40932;DHT22;36257;46.052;12.540;2023-05-08T06:02:35;16.50;99.90
40932;DHT22;36257;46.052;12.540;2023-05-08T06:05:00;16.50;99.90
40932;DHT22;36257;46.052;12.540;2023-05-08T06:07:26;16.60;99.90
40932;DHT22;36257;46.052;12.540;2023-05-08T06:09:52;16.50;99.90
40932;DHT22;36257;46.052;12.540;2023-05-08T06:12:18;16.50;99.90
40932;DHT22;36257;46.052;12.540;2023-05-08T06:14:44;16.60;99.90
40932;DHT22;36257;46.052;12.540;2023-05-08T06:17:10;16.60;99.90
40932;DHT22;36257;46.052;12.540;2023-05-08T06:19:36;16.70;99.90
40932;DHT22;36257;46.052;12.540;2023-05-08T06:22:01;16.70;99.90
40932;DHT22;36257;46.052;12.540;2023-05-08T06:24:27;16.70;99.90
40932;DHT22;36257;46.052;12.540;2023-05-08T06:26:53;16.70;99.90
40932;DHT22;36257;46.052;12.540;2023-05-08T06:29:19;16.80;99.90
40932;DHT22;36257;46.052;12.540;2023-05-08T06:31:45;16.90;99.90
40932;DHT22;36257;46.052;12.540;2023-05-08T06:34:11;16.90;99.90
40932;DHT22;36257;46.052;12.540;2023-05-08T06:36:36;16.90;99.90
40932;DHT22;36257;46.052;12.540;2023-05-08T06:39:05;17.00;99.90
40932;DHT22;36257;46.052;12.540;2023-05-08T06:41:31;17.00;99.90
40932;DHT22;36257;46.052;12.540;2023-05-08T06:43:57;17.10;99.90
40932;DHT22;36257;46.052;12.540;2023-05-08T06:46:23;17.10;99.90
40932;DHT22;36257;46.052;12.540;2023-05-08T06:48:48;17.10;99.90
40932;DHT22;36257;46.052;12.540;2023-05-08T06:51:14;17.10;99.90
40932;DHT22;36257;46.052;12.540;2023-05-08T06:53:40;17.20;99.90
40932;DHT22;36257;46.052;12.540;2023-05-08T06:56:06;17.20;99.90
40932;DHT22;36257;46.052;12.540;2023-05-08T06:58:32;17.20;99.90
40932;DHT22;36257;46.052;12.540;2023-05-08T07:01:00;17.30;99.90
40932;DHT22;36257;46.052;12.540;2023-05-08T07:03:26;17.40;99.90
40932;DHT22;36257;46.052;12.540;2023-05-08T07:05:52;17.50;99.90
40932;DHT22;36257;46.052;12.540;2023-05-08T07:08:18;17.60;99.90
40932;DHT22;36257;46.052;12.540;2023-05-08T07:10:44;17.60;99.90
40932;DHT22;36257;46.052;12.540;2023-05-08T07:13:10;17.70;99.90
40932;DHT22;36257;46.052;12.540;2023-05-08T07:15:35;17.80;99.90
40932;DHT22;36257;46.052;12.540;2023-05-08T07:18:03;17.90;99.90
40932;DHT22;36257;46.052;12.540;2023-05-08T07:20:29;18.00;99.90
40932;DHT22;36257;46.052;12.540;2023-05-08T07:22:54;18.10;99.90
40932;DHT22;36257;46.052;12.540;2023-05-08T07:25:20;18.30;99.90
40932;DHT22;36257;46.052;12.540;2023-05-08T07:27:46;18.50;99.90
40932;DHT22;36257;46.052;12.540;2023-05-08T07:30:12;18.60;99.90
40932;DHT22;36257;46.052;12.540;2023-05-08T07:32:37;18.80;99.90
40932;DHT22;36257;46.052;12.540;2023-05-08T07:35:04;18.90;99.90
40932;DHT22;36257;46.052;12.540;2023-05-08T07:37:32;19.10;99.90
40932;DHT22;36257;46.052;12.540;2023-05-08T07:39:57;19.30;99.90
40932;DHT22;36257;46.052;12.540;2023-05-08T07:42:23;19.50;99.90
40932;DHT22;36257;46.052;12.540;2023-05-08T07:44:49;19.70;98.50
40932;DHT22;36257;46.052;12.540;2023-05-08T07:47:14;19.80;93.10
40932;DHT22;36257;46.052;12.540;2023-05-08T07:49:40;19.90;95.30
40932;DHT22;36257;46.052;12.540;2023-05-08T07:52:06;20.10;94.50
40932;DHT22;36257;46.052;12.540;2023-05-08T07:54:31;20.20;95.80
40932;DHT22;36257;46.052;12.540;2023-05-08T07:56:57;20.20;94.00
40932;DHT22;36257;46.052;12.540;2023-05-08T07:59:22;20.20;93.70
40932;DHT22;36257;46.052;12.540;2023-05-08T08:01:48;20.20;93.80
40932;DHT22;36257;46.052;12.540;2023-05-08T08:04:14;20.20;92.40
40932;DHT22;36257;46.052;12.540;2023-05-08T08:06:39;20.20;95.00
40932;DHT22;36257;46.052;12.540;2023-05-08T08:09:05;20.20;94.00
40932;DHT22;36257;46.052;12.540;2023-05-08T08:11:31;20.30;92.20
40932;DHT22;36257;46.052;12.540;2023-05-08T08:13:57;20.20;93.60
40932;DHT22;36257;46.052;12.540;2023-05-08T08:16:22;20.20;94.60
40932;DHT22;36257;46.052;12.540;2023-05-08T08:18:48;20.20;95.40
40932;DHT22;36257;46.052;12.540;2023-05-08T08:21:14;20.20;94.60
40932;DHT22;36257;46.052;12.540;2023-05-08T08:23:39;20.20;95.10
40932;DHT22;36257;46.052;12.540;2023-05-08T08:26:05;20.20;95.70
40932;DHT22;36257;46.052;12.540;2023-05-08T08:28:31;20.20;96.60
40932;DHT22;36257;46.052;12.540;2023-05-08T08:30:57;20.30;95.70
40932;DHT22;36257;46.052;12.540;2023-05-08T08:33:22;20.30;95.80
40932;DHT22;36257;46.052;12.540;2023-05-08T08:35:48;20.40;95.50
40932;DHT22;36257;46.052;12.540;2023-05-08T08:38:14;20.40;95.50
40932;DHT22;36257;46.052;12.540;2023-05-08T08:40:40;20.50;93.70
40932;DHT22;36257;46.052;12.540;2023-05-08T08:43:06;20.40;94.20
40932;DHT22;36257;46.052;12.540;2023-05-08T08:45:32;20.40;95.60
40932;DHT22;36257;46.052;12.540;2023-05-08T08:48:01;20.40;94.10
40932;DHT22;36257;46.052;12.540;2023-05-08T08:50:30;20.40;96.60
40932;DHT22;36257;46.052;12.540;2023-05-08T08:53:25;20.30;93.50
40932;DHT22;36257;46.052;12.540;2023-05-08T08:55:53;20.20;95.50
40932;DHT22;36257;46.052;12.540;2023-05-08T09:00:49;20.00;94.00
40932;DHT22;36257;46.052;12.540;2023-05-08T09:03:16;19.90;97.10
40932;DHT22;36257;46.052;12.540;2023-05-08T09:05:42;20.00;95.60
40932;DHT22;36257;46.052;12.540;2023-05-08T09:08:09;20.00;93.60
40932;DHT22;36257;46.052;12.540;2023-05-08T09:10:35;20.00;95.80
40932;DHT22;36257;46.052;12.540;2023-05-08T09:13:04;20.10;93.50
40932;DHT22;36257;46.052;12.540;2023-05-08T09:15:31;20.00;94.70
40932;DHT22;36257;46.052;12.540;2023-05-08T09:17:57;20.00;95.90
40932;DHT22;36257;46.052;12.540;2023-05-08T09:20:24;20.00;97.50
40932;DHT22;36257;46.052;12.540;2023-05-08T09:22:50;19.90;97.00
40932;DHT22;36257;46.052;12.540;2023-05-08T09:25:17;19.90;97.90
40932;DHT22;36257;46.052;12.540;2023-05-08T09:27:43;19.90;98.30
40932;DHT22;36257;46.052;12.540;2023-05-08T09:30:11;19.90;99.50
40932;DHT22;36257;46.052;12.540;2023-05-08T09:32:39;19.60;98.70
40932;DHT22;36257;46.052;12.540;2023-05-08T09:35:07;19.40;99.10
40932;DHT22;36257;46.052;12.540;2023-05-08T09:37:33;19.40;99.90
40932;DHT22;36257;46.052;12.540;2023-05-08T09:40:16;19.40;99.90
40932;DHT22;36257;46.052;12.540;2023-05-08T09:42:42;19.40;99.90
40932;DHT22;36257;46.052;12.540;2023-05-08T09:45:08;19.30;99.90
40932;DHT22;36257;46.052;12.540;2023-05-08T09:47:34;19.30;99.90
40932;DHT22;36257;46.052;12.540;2023-05-08T09:50:08;19.30;99.90
40932;DHT22;36257;46.052;12.540;2023-05-08T09:52:36;19.40;99.70
40932;DHT22;36257;46.052;12.540;2023-05-08T09:55:11;19.50;97.90
40932;DHT22;36257;46.052;12.540;2023-05-08T09:57:59;19.50;99.30
40932;DHT22;36257;46.052;12.540;2023-05-08T10:00:26;19.50;99.20
40932;DHT22;36257;46.052;12.540;2023-05-08T10:02:58;19.50;98.60
40932;DHT22;36257;46.052;12.540;2023-05-08T10:05:28;19.60;97.20
40932;DHT22;36257;46.052;12.540;2023-05-08T10:07:56;19.60;98.00
40932;DHT22;36257;46.052;12.540;2023-05-08T10:10:26;19.60;96.80
40932;DHT22;36257;46.052;12.540;2023-05-08T10:12:53;19.50;97.10
40932;DHT22;36257;46.052;12.540;2023-05-08T10:15:29;19.60;98.30
40932;DHT22;36257;46.052;12.540;2023-05-08T10:18:05;19.50;98.80
40932;DHT22;36257;46.052;12.540;2023-05-08T10:20:33;19.60;97.50
40932;DHT22;36257;46.052;12.540;2023-05-08T10:23:00;19.60;98.70
40932;DHT22;36257;46.052;12.540;2023-05-08T10:25:30;19.60;97.30
40932;DHT22;36257;46.052;12.540;2023-05-08T10:28:07;19.70;98.30
40932;DHT22;36257;46.052;12.540;2023-05-08T10:30:37;19.70;99.20
40932;DHT22;36257;46.052;12.540;2023-05-08T10:33:08;19.70;97.70
40932;DHT22;36257;46.052;12.540;2023-05-08T10:35:36;19.70;97.60
40932;DHT22;36257;46.052;12.540;2023-05-08T10:38:03;19.70;97.70
40932;DHT22;36257;46.052;12.540;2023-05-08T10:40:29;19.70;98.10
40932;DHT22;36257;46.052;12.540;2023-05-08T10:42:55;19.60;98.40
40932;DHT22;36257;46.052;12.540;2023-05-08T10:45:23;19.60;97.50
40932;DHT22;36257;46.052;12.540;2023-05-08T10:48:16;19.60;98.90
40932;DHT22;36257;46.052;12.540;2023-05-08T10:53:37;19.60;98.40
40932;DHT22;36257;46.052;12.540;2023-05-08T10:56:04;19.60;98.10
40932;DHT22;36257;46.052;12.540;2023-05-08T10:58:32;19.60;97.80
40932;DHT22;36257;46.052;12.540;2023-05-08T11:03:31;19.60;96.30
40932;DHT22;36257;46.052;12.540;2023-05-08T11:05:58;19.50;97.00
40932;DHT22;36257;46.052;12.540;2023-05-08T11:08:26;19.50;97.70
40932;DHT22;36257;46.052;12.540;2023-05-08T11:13:33;19.90;97.30
40932;DHT22;36257;46.052;12.540;2023-05-08T11:15:59;20.00;97.50
40932;DHT22;36257;46.052;12.540;2023-05-08T11:18:26;20.10;96.70
40932;DHT22;36257;46.052;12.540;2023-05-08T11:20:59;20.10;97.10
40932;DHT22;36257;46.052;12.540;2023-05-08T11:23:32;20.20;96.40
40932;DHT22;36257;46.052;12.540;2023-05-08T11:26:12;20.20;96.90
40932;DHT22;36257;46.052;12.540;2023-05-08T11:28:39;20.20;96.10
40932;DHT22;36257;46.052;12.540;2023-05-08T11:31:07;20.30;95.80
40932;DHT22;36257;46.052;12.540;2023-05-08T11:33:36;20.40;95.20
40932;DHT22;36257;46.052;12.540;2023-05-08T11:36:18;20.40;95.00
40932;DHT22;36257;46.052;12.540;2023-05-08T11:39:09;20.40;95.40
40932;DHT22;36257;46.052;12.540;2023-05-08T11:41:40;20.40;95.30
40932;DHT22;36257;46.052;12.540;2023-05-08T11:44:16;20.50;95.30
40932;DHT22;36257;46.052;12.540;2023-05-08T11:46:54;20.60;94.30
40932;DHT22;36257;46.052;12.540;2023-05-08T11:49:25;20.60;95.10
40932;DHT22;36257;46.052;12.540;2023-05-08T11:51:53;20.60;95.70
40932;DHT22;36257;46.052;12.540;2023-05-08T11:54:20;20.70;94.10
40932;DHT22;36257;46.052;12.540;2023-05-08T11:56:52;20.70;92.10
40932;DHT22;36257;46.052;12.540;2023-05-08T11:59:19;20.70;94.00
40932;DHT22;36257;46.052;12.540;2023-05-08T12:01:48;20.80;93.70
40932;DHT22;36257;46.052;12.540;2023-05-08T12:04:13;20.80;93.90
40932;DHT22;36257;46.052;12.540;2023-05-08T12:06:40;20.90;92.40
40932;DHT22;36257;46.052;12.540;2023-05-08T12:11:35;21.00;90.70
40932;DHT22;36257;46.052;12.540;2023-05-08T12:14:01;21.10;89.40
40932;DHT22;36257;46.052;12.540;2023-05-08T12:16:27;21.10;87.30
40932;DHT22;36257;46.052;12.540;2023-05-08T12:18:55;21.20;89.00
40932;DHT22;36257;46.052;12.540;2023-05-08T12:21:21;21.20;88.00
40932;DHT22;36257;46.052;12.540;2023-05-08T12:23:47;21.30;87.90
40932;DHT22;36257;46.052;12.540;2023-05-08T12:26:14;21.30;88.90
40932;DHT22;36257;46.052;12.540;2023-05-08T12:28:43;21.40;89.30
40932;DHT22;36257;46.052;12.540;2023-05-08T12:31:09;21.40;89.90
40932;DHT22;36257;46.052;12.540;2023-05-08T12:33:36;21.50;88.90
40932;DHT22;36257;46.052;12.540;2023-05-08T12:36:03;21.40;86.10
40932;DHT22;36257;46.052;12.540;2023-05-08T12:38:30;21.20;87.30
40932;DHT22;36257;46.052;12.540;2023-05-08T12:40:56;21.20;87.00
40932;DHT22;36257;46.052;12.540;2023-05-08T12:43:34;21.10;87.90
40932;DHT22;36257;46.052;12.540;2023-05-08T12:46:01;21.10;89.30
40932;DHT22;36257;46.052;12.540;2023-05-08T12:48:27;21.00;89.90
40932;DHT22;36257;46.052;12.540;2023-05-08T12:50:53;21.10;89.80
40932;DHT22;36257;46.052;12.540;2023-05-08T12:53:20;21.10;87.80
40932;DHT22;36257;46.052;12.540;2023-05-08T12:55:52;21.20;88.60
40932;DHT22;36257;46.052;12.540;2023-05-08T12:58:18;21.10;87.80
40932;DHT22;36257;46.052;12.540;2023-05-08T13:00:46;21.10;88.50
40932;DHT22;36257;46.052;12.540;2023-05-08T13:03:20;21.00;88.20
40932;DHT22;36257;46.052;12.540;2023-05-08T13:05:46;21.00;88.10
40932;DHT22;36257;46.052;12.540;2023-05-08T13:08:11;20.90;88.70
40932;DHT22;36257;46.052;12.540;2023-05-08T13:10:47;20.90;89.90
40932;DHT22;36257;46.052;12.540;2023-05-08T13:13:15;20.90;89.60
40932;DHT22;36257;46.052;12.540;2023-05-08T13:15:41;20.90;89.50
40932;DHT22;36257;46.052;12.540;2023-05-08T13:18:07;20.90;89.00
40932;DHT22;36257;46.052;12.540;2023-05-08T13:20:34;20.80;89.30
40932;DHT22;36257;46.052;12.540;2023-05-08T13:23:00;20.80;90.10
40932;DHT22;36257;46.052;12.540;2023-05-08T13:25:25;20.90;90.10
40932;DHT22;36257;46.052;12.540;2023-05-08T13:27:51;20.80;89.60
40932;DHT22;36257;46.052;12.540;2023-05-08T13:30:17;20.80;89.70
40932;DHT22;36257;46.052;12.540;2023-05-08T13:32:42;20.80;89.20
40932;DHT22;36257;46.052;12.540;2023-05-08T13:35:08;20.80;89.30
40932;DHT22;36257;46.052;12.540;2023-05-08T13:37:34;20.80;90.80
40932;DHT22;36257;46.052;12.540;2023-05-08T13:40:00;20.80;89.90
40932;DHT22;36257;46.052;12.540;2023-05-08T13:42:25;20.90;90.70
40932;DHT22;36257;46.052;12.540;2023-05-08T13:44:51;20.90;91.00
40932;DHT22;36257;46.052;12.540;2023-05-08T13:47:17;20.90;90.90
40932;DHT22;36257;46.052;12.540;2023-05-08T13:49:42;20.90;90.70
40932;DHT22;36257;46.052;12.540;2023-05-08T13:52:09;20.90;90.40
40932;DHT22;36257;46.052;12.540;2023-05-08T13:54:34;21.00;90.20
40932;DHT22;36257;46.052;12.540;2023-05-08T13:57:00;21.10;89.70
40932;DHT22;36257;46.052;12.540;2023-05-08T13:59:27;21.10;90.30
40932;DHT22;36257;46.052;12.540;2023-05-08T14:01:53;21.20;89.20
40932;DHT22;36257;46.052;12.540;2023-05-08T14:04:18;21.20;89.80
40932;DHT22;36257;46.052;12.540;2023-05-08T14:06:44;21.20;89.90
40932;DHT22;36257;46.052;12.540;2023-05-08T14:09:10;21.30;91.10
40932;DHT22;36257;46.052;12.540;2023-05-08T14:11:36;21.30;89.60
40932;DHT22;36257;46.052;12.540;2023-05-08T14:14:01;21.20;89.30
40932;DHT22;36257;46.052;12.540;2023-05-08T14:16:27;21.20;89.80
40932;DHT22;36257;46.052;12.540;2023-05-08T14:18:53;21.10;90.20
40932;DHT22;36257;46.052;12.540;2023-05-08T14:21:18;21.10;90.50
40932;DHT22;36257;46.052;12.540;2023-05-08T14:23:44;21.10;89.30
40932;DHT22;36257;46.052;12.540;2023-05-08T14:26:09;21.10;89.60
40932;DHT22;36257;46.052;12.540;2023-05-08T14:28:35;21.10;91.70
40932;DHT22;36257;46.052;12.540;2023-05-08T14:31:01;21.10;90.10
40932;DHT22;36257;46.052;12.540;2023-05-08T14:33:26;21.20;90.90
40932;DHT22;36257;46.052;12.540;2023-05-08T14:35:52;21.20;89.70
40932;DHT22;36257;46.052;12.540;2023-05-08T14:38:18;21.20;89.40
40932;DHT22;36257;46.052;12.540;2023-05-08T14:40:43;21.20;89.90
40932;DHT22;36257;46.052;12.540;2023-05-08T14:43:09;21.20;89.90
40932;DHT22;36257;46.052;12.540;2023-05-08T14:45:34;21.20;91.40
40932;DHT22;36257;46.052;12.540;2023-05-08T14:48:00;21.00;91.20
40932;DHT22;36257;46.052;12.540;2023-05-08T14:50:26;21.00;90.30
40932;DHT22;36257;46.052;12.540;2023-05-08T14:52:52;21.00;90.60
40932;DHT22;36257;46.052;12.540;2023-05-08T14:55:18;21.00;90.50
40932;DHT22;36257;46.052;12.540;2023-05-08T14:57:45;21.00;90.80
40932;DHT22;36257;46.052;12.540;2023-05-08T15:00:12;21.10;90.70
40932;DHT22;36257;46.052;12.540;2023-05-08T15:02:39;21.10;90.40
40932;DHT22;36257;46.052;12.540;2023-05-08T15:05:06;21.00;90.20
40932;DHT22;36257;46.052;12.540;2023-05-08T15:07:31;21.00;89.80
40932;DHT22;36257;46.052;12.540;2023-05-08T15:09:57;21.00;90.60
40932;DHT22;36257;46.052;12.540;2023-05-08T15:12:23;21.00;91.40
40932;DHT22;36257;46.052;12.540;2023-05-08T15:14:48;21.00;91.30
40932;DHT22;36257;46.052;12.540;2023-05-08T15:17:14;20.90;90.90
40932;DHT22;36257;46.052;12.540;2023-05-08T15:19:40;20.90;92.00
40932;DHT22;36257;46.052;12.540;2023-05-08T15:22:07;20.90;91.40
40932;DHT22;36257;46.052;12.540;2023-05-08T15:24:33;20.80;91.30
40932;DHT22;36257;46.052;12.540;2023-05-08T15:26:58;20.70;90.50
40932;DHT22;36257;46.052;12.540;2023-05-08T15:29:25;20.60;90.00
40932;DHT22;36257;46.052;12.540;2023-05-08T15:31:51;20.50;89.60
40932;DHT22;36257;46.052;12.540;2023-05-08T15:34:17;20.50;89.50
40932;DHT22;36257;46.052;12.540;2023-05-08T15:36:42;20.40;88.60
40932;DHT22;36257;46.052;12.540;2023-05-08T15:39:08;20.40;89.30
40932;DHT22;36257;46.052;12.540;2023-05-08T15:41:34;20.30;89.70
40932;DHT22;36257;46.052;12.540;2023-05-08T15:44:01;20.30;91.00
40932;DHT22;36257;46.052;12.540;2023-05-08T15:46:27;20.20;90.70
40932;DHT22;36257;46.052;12.540;2023-05-08T15:48:54;20.10;90.50
40932;DHT22;36257;46.052;12.540;2023-05-08T15:51:19;20.10;90.40
40932;DHT22;36257;46.052;12.540;2023-05-08T15:53:45;20.10;90.50
40932;DHT22;36257;46.052;12.540;2023-05-08T15:56:11;20.00;90.50
40932;DHT22;36257;46.052;12.540;2023-05-08T15:58:36;19.90;90.60
40932;DHT22;36257;46.052;12.540;2023-05-08T16:01:03;19.90;91.10